ADDS METAR Data INFO
IDs: Format: Raw Decoded Include TAF

Data at: 2343 UTC 15 Dec 2017

KDAY 152256Z 25010KT 10SM BKN034 M03/M06 A3000 RMK AO2 SLP173 T10281061
KDAY 152156Z 25016KT 10SM FEW027 OVC034 M02/M06 A2998 RMK AO2 SLP164 T10171061
KDAY 152109Z 26016KT 10SM OVC032 M02/M06 A2996 RMK AO2 T10171061
KDAY 152056Z 27020KT 10SM BKN026 OVC031 M02/M06 A2996 RMK AO2 PK WND 25027/2036 SLP158 BINOVC T10171061 53004
KDAY 151956Z 26018G28KT 10SM OVC024 M02/M06 A2995 RMK AO2 PK WND 26028/1951 SLP155 T10171061
KDAY 151856Z 24016G22KT 10SM BKN023 OVC044 M02/M06 A2994 RMK AO2 PK WND 23027/1819 SLP152 T10171061
KDAY 151756Z 25019G25KT 10SM BKN024 OVC034 M02/M07 A2995 RMK AO2 SLP154 T10221067 11017 21067 58015
KDAY 151656Z 23019KT 10SM BKN025 OVC050 M02/M07 A2996 RMK AO2 SLP158 T10221067
KDAY 151556Z 22013KT 9SM BKN034 M03/M07 A2999 RMK AO2 SLP168 T10331067
KDAY 151456Z 23011KT 9SM OVC036 M05/M08 A2999 RMK AO2 SLP170 T10501078 58002
KDAY 151356Z 22008KT 8SM OVC037 M06/M08 A2999 RMK AO2 SLP169 T10561078
KDAY 151256Z 22008KT 9SM BKN040 BKN120 M07/M08 A3000 RMK AO2 SLP174 T10671083
KDAY 151156Z 21006KT 10SM OVC040 M07/M08 A3000 RMK AO2 SLP173 T10671083 11061 21083 58006
KDAY 151056Z 20007KT 10SM OVC042 M07/M08 A3000 RMK AO2 SLP175 T10671083
KDAY 150956Z 21005KT 10SM OVC042 M07/M08 A3001 RMK AO2 SLP177 T10671083
KDAY 150856Z 18004KT 10SM OVC170 M07/M08 A3002 RMK AO2 SLP178 T10721083 56012
KDAY 150756Z 00000KT 10SM BKN150 M08/M09 A3002 RMK AO2 SLP182 T10831094
KDAY 150656Z 15004KT 10SM OVC160 M07/M09 A3004 RMK AO2 SLP185 T10671089
KDAY 150556Z 00000KT 10SM BKN170 OVC200 M07/M09 A3005 RMK AO2 SLP192 T10671094 11056 21078 58011
KDAY 150456Z 00000KT 10SM BKN150 BKN170 M07/M09 A3006 RMK AO2 SLP194 T10671094 400061078
KDAY 150356Z 34003KT 10SM OVC160 M07/M08 A3008 RMK AO2 SLP201 T10671083
KDAY 150256Z 27003KT 10SM OVC160 M07/M08 A3008 RMK AO2 SLP203 T10671083 53002
KDAY 150156Z 27003KT 10SM BKN170 OVC210 M06/M08 A3007 RMK AO2 SLP196 T10611083
KDAY 150056Z 27003KT 10SM FEW023 BKN170 OVC230 M06/M09 A3008 RMK AO2 SLP201 T10611089
KDAY 142356Z 26003KT 10SM FEW023 SCT170 BKN230 M06/M08 A3008 RMK AO2 SLP200 T10611083 11044 21067 51016
KDAY 142256Z 23004KT 10SM BKN200 M06/M09 A3007 RMK AO2 SLP196 T10561089
KDAY 142156Z 00000KT 10SM FEW023 BKN210 M04/M09 A3005 RMK AO2 SLP189 T10441089
KDAY 142116Z 00000KT 10SM FEW022 BKN210 M04/M08 A3003 RMK AO2 T10441083
KDAY 142109Z 17003KT 10SM BKN022 BKN210 M05/M08 A3003 RMK AO2 T10501083
KDAY 142056Z 00000KT 10SM SCT021 BKN200 M04/M08 A3003 RMK AO2 SLP182 T10441083 56003
KDAY 141956Z 33003KT 10SM SCT019 BKN200 M05/M09 A3003 RMK AO2 SLP181 T10501089
KDAY 141947Z 33005KT 10SM SCT019 BKN200 M05/M09 A3003 RMK AO2 T10501089
KDAY 141856Z 01005KT 10SM BKN018 BKN200 M05/M09 A3003 RMK AO2 SLP181 T10501089
KDAY 141756Z VRB04KT 10SM OVC018 M06/M09 A3004 RMK AO2 SLP184 T10561089 11056 21067 51012
KDAY 141656Z 36006KT 10SM OVC017 M06/M09 A3004 RMK AO2 SLP182 T10561089
KDAY 141556Z 02007KT 10SM OVC016 M06/M09 A3004 RMK AO2 SLP183 T10611089
KDAY 141456Z 02007KT 10SM OVC015 M07/M09 A3000 RMK AO2 SLP170 T10671089 51031
KDAY 141356Z 34010KT 10SM OVC015 M07/M09 A2998 RMK AO2 SLP164 T10671089
KDAY 141256Z 35009KT 10SM OVC015 M06/M08 A2996 RMK AO2 SLP155 T10611083
KDAY 141156Z 02011KT 10SM OVC015 M06/M08 A2990 RMK AO2 SLP137 T10611083 11006 21061 51047